FMEP Airport Information

Runway Information
Runway 15 Length 4965 ft width 98 ft
Elevation 59 ft Threshold 0 ft Heading 129
Runway 33 Length 4965 ft Width 98 ft
Elevation 41 ft Threshold 0 ft Heading 309
Airport Frequencies
Type INFO Name PIERREFOND Frequency 122.4 MHZ
Airport Navaids
Type VOR-DME Name St Pierre Pierrefonds Frequency 115900 KHZ
Type NDB Name Pierrefonds/Etang Frequency 352 KHZ
Airport Weather Information & NOTAM
ADDS - METARS form results

(1616 UTC 24 January 2020)
Data provider http://aviationweather.gov/metar/data/
 
METAR text: FMEP 241600Z AUTO 16016KT 9000 SCT011/// BKN020/// BKN033/// ///TCU 26/25 Q1006
Conditions at: FMEP (ST. PIERRE/FONDS, FR) observed 1600 UTC 24 January 2020
Temperature: 26.0°C (79°F)
Dewpoint: 25.0°C (77°F) [RH = 94%]
Pressure (altimeter): 29.70 inches Hg (1006.0 mb)
Winds: from the SSE (160 degrees) at 18 MPH (16 knots; 8.2 m/s)
Visibility: 6 miles ( 9 km)
Ceiling: 2000 feet AGL
Clouds: scattered clouds at 1100 feet AGL
broken clouds at 2000 feet AGL
broken clouds at 3300 feet AGL
Weather: no significant weather observed at this time

METAR text: FMEP 241530Z AUTO 15015KT 6000 -RA FEW010/// SCT025/// BKN035/// ///TCU 26/25 Q1005
Conditions at: FMEP (ST. PIERRE/FONDS, FR) observed 1530 UTC 24 January 2020
Temperature: 26.0°C (79°F)
Dewpoint: 25.0°C (77°F) [RH = 94%]
Pressure (altimeter): 29.68 inches Hg (1005.0 mb)
Winds: from the SSE (150 degrees) at 17 MPH (15 knots; 7.7 m/s)
Visibility: 4 miles ( 6 km)
Ceiling: 3500 feet AGL
Clouds: few clouds at 1000 feet AGL
scattered clouds at 2500 feet AGL
broken clouds at 3500 feet AGL
Weather: -RA  (light rain)

Forecast for: FMEP (ST. PIERRE/FONDS, FR)
Text: TAF FMEP 241100Z 2412/2421 16015KT 9999 SCT012 BKN036
Forecast period: 1200 to 2100 UTC 24 January 2020
Forecast type: FROM: standard forecast or significant change
Winds: from the SSE (160 degrees) at 17 MPH (15 knots; 7.7 m/s)
Visibility: 6 or more miles 10+ km)
Ceiling: 3600 feet AGL
Clouds: scattered clouds at 1200 feet AGL
broken clouds at 3600 feet AGL
Weather: no significant weather forecast for this period
Text: TEMPO 2412/2421 3000 SHRA SCT008TCU
Forecast period: 1200 to 2100 UTC 24 January 2020
Forecast type: TEMPORARY: The following changes expected for less than half the time period
Visibility: 1.86 miles (2.99 km)
Ceiling: at least 12,000 feet AGL
Clouds: scattered clouds at 800 feet AGL
Weather: SHRA  (rain showers)